sensor_id;sensor_type;location;lat;lon;timestamp;P1;durP1;ratioP1;P2;durP2;ratioP2
45316;SDS011;31053;55.870;37.592;2022-08-03T00:01:01;11.02;;;3.95;;
45316;SDS011;31053;55.870;37.592;2022-08-03T00:04:06;16.98;;;4.40;;
45316;SDS011;31053;55.870;37.592;2022-08-03T00:07:11;10.90;;;5.18;;
45316;SDS011;31053;55.870;37.592;2022-08-03T00:10:15;16.17;;;4.15;;
45316;SDS011;31053;55.870;37.592;2022-08-03T00:13:20;12.00;;;4.30;;
45316;SDS011;31053;55.870;37.592;2022-08-03T00:16:26;8.63;;;4.13;;
45316;SDS011;31053;55.870;37.592;2022-08-03T00:19:30;9.25;;;4.55;;
45316;SDS011;31053;55.870;37.592;2022-08-03T00:22:34;8.25;;;4.35;;
45316;SDS011;31053;55.870;37.592;2022-08-03T00:25:39;11.55;;;4.07;;
45316;SDS011;31053;55.870;37.592;2022-08-03T00:28:43;9.85;;;4.15;;
45316;SDS011;31053;55.870;37.592;2022-08-03T00:31:47;11.07;;;4.18;;
45316;SDS011;31053;55.870;37.592;2022-08-03T00:34:51;8.88;;;3.55;;
45316;SDS011;31053;55.870;37.592;2022-08-03T00:37:56;7.18;;;3.28;;
45316;SDS011;31053;55.870;37.592;2022-08-03T00:41:01;9.48;;;3.30;;
45316;SDS011;31053;55.870;37.592;2022-08-03T00:44:06;13.38;;;4.10;;
45316;SDS011;31053;55.870;37.592;2022-08-03T00:47:11;6.43;;;3.50;;
45316;SDS011;31053;55.870;37.592;2022-08-03T00:50:19;7.78;;;3.45;;
45316;SDS011;31053;55.870;37.592;2022-08-03T00:53:28;7.50;;;3.67;;
45316;SDS011;31053;55.870;37.592;2022-08-03T00:56:33;10.48;;;3.83;;
45316;SDS011;31053;55.870;37.592;2022-08-03T00:59:37;8.70;;;4.00;;
45316;SDS011;31053;55.870;37.592;2022-08-03T01:02:42;10.68;;;3.92;;
45316;SDS011;31053;55.870;37.592;2022-08-03T01:09:17;6.00;;;3.70;;
45316;SDS011;31053;55.870;37.592;2022-08-03T01:12:37;7.35;;;4.00;;
45316;SDS011;31053;55.870;37.592;2022-08-03T01:15:52;8.98;;;3.60;;
45316;SDS011;31053;55.870;37.592;2022-08-03T01:32:11;6.85;;;3.58;;
45316;SDS011;31053;55.870;37.592;2022-08-03T01:35:21;7.88;;;4.70;;
45316;SDS011;31053;55.870;37.592;2022-08-03T01:38:34;10.35;;;3.90;;
45316;SDS011;31053;55.870;37.592;2022-08-03T01:41:47;7.03;;;3.95;;
45316;SDS011;31053;55.870;37.592;2022-08-03T01:44:54;6.45;;;4.05;;
45316;SDS011;31053;55.870;37.592;2022-08-03T01:48:00;10.10;;;4.53;;
45316;SDS011;31053;55.870;37.592;2022-08-03T01:51:06;12.82;;;4.70;;
45316;SDS011;31053;55.870;37.592;2022-08-03T01:54:12;9.27;;;3.73;;
45316;SDS011;31053;55.870;37.592;2022-08-03T01:57:16;10.65;;;4.32;;
45316;SDS011;31053;55.870;37.592;2022-08-03T02:00:22;11.43;;;3.40;;
45316;SDS011;31053;55.870;37.592;2022-08-03T02:03:28;8.73;;;3.42;;
45316;SDS011;31053;55.870;37.592;2022-08-03T02:06:33;10.85;;;4.20;;
45316;SDS011;31053;55.870;37.592;2022-08-03T02:09:39;12.85;;;4.68;;
45316;SDS011;31053;55.870;37.592;2022-08-03T02:12:44;9.25;;;4.80;;
45316;SDS011;31053;55.870;37.592;2022-08-03T02:15:49;8.23;;;4.70;;
45316;SDS011;31053;55.870;37.592;2022-08-03T02:18:55;7.90;;;4.50;;
45316;SDS011;31053;55.870;37.592;2022-08-03T02:22:01;12.88;;;4.47;;
45316;SDS011;31053;55.870;37.592;2022-08-03T02:25:08;10.88;;;3.58;;
45316;SDS011;31053;55.870;37.592;2022-08-03T02:28:19;12.82;;;5.65;;
45316;SDS011;31053;55.870;37.592;2022-08-03T02:31:26;12.20;;;5.20;;
45316;SDS011;31053;55.870;37.592;2022-08-03T02:34:32;9.55;;;4.75;;
45316;SDS011;31053;55.870;37.592;2022-08-03T02:37:42;8.77;;;4.57;;
45316;SDS011;31053;55.870;37.592;2022-08-03T02:40:50;11.93;;;4.88;;
45316;SDS011;31053;55.870;37.592;2022-08-03T02:43:55;8.70;;;4.53;;
45316;SDS011;31053;55.870;37.592;2022-08-03T02:47:02;12.48;;;4.10;;
45316;SDS011;31053;55.870;37.592;2022-08-03T02:50:09;9.90;;;4.15;;
45316;SDS011;31053;55.870;37.592;2022-08-03T02:53:15;6.18;;;4.20;;
45316;SDS011;31053;55.870;37.592;2022-08-03T02:56:21;16.10;;;4.93;;
45316;SDS011;31053;55.870;37.592;2022-08-03T02:59:27;8.15;;;5.63;;
45316;SDS011;31053;55.870;37.592;2022-08-03T03:02:34;10.23;;;5.23;;
45316;SDS011;31053;55.870;37.592;2022-08-03T03:05:40;13.50;;;6.07;;
45316;SDS011;31053;55.870;37.592;2022-08-03T03:08:44;12.13;;;4.95;;
45316;SDS011;31053;55.870;37.592;2022-08-03T03:11:50;11.27;;;5.57;;
45316;SDS011;31053;55.870;37.592;2022-08-03T03:14:54;11.23;;;5.05;;
45316;SDS011;31053;55.870;37.592;2022-08-03T03:17:59;23.02;;;5.55;;
45316;SDS011;31053;55.870;37.592;2022-08-03T03:21:04;9.13;;;4.93;;
45316;SDS011;31053;55.870;37.592;2022-08-03T03:24:10;16.40;;;5.47;;
45316;SDS011;31053;55.870;37.592;2022-08-03T03:27:15;11.20;;;5.40;;
45316;SDS011;31053;55.870;37.592;2022-08-03T03:30:20;12.13;;;5.85;;
45316;SDS011;31053;55.870;37.592;2022-08-03T03:33:24;15.10;;;5.75;;
45316;SDS011;31053;55.870;37.592;2022-08-03T03:36:29;11.52;;;5.50;;
45316;SDS011;31053;55.870;37.592;2022-08-03T03:39:33;12.60;;;5.78;;
45316;SDS011;31053;55.870;37.592;2022-08-03T03:42:39;13.17;;;5.87;;
45316;SDS011;31053;55.870;37.592;2022-08-03T03:45:44;12.82;;;4.75;;
45316;SDS011;31053;55.870;37.592;2022-08-03T03:48:50;18.67;;;7.35;;
45316;SDS011;31053;55.870;37.592;2022-08-03T03:51:54;11.90;;;5.97;;
45316;SDS011;31053;55.870;37.592;2022-08-03T03:54:58;13.15;;;5.07;;
45316;SDS011;31053;55.870;37.592;2022-08-03T03:58:03;14.18;;;7.03;;
45316;SDS011;31053;55.870;37.592;2022-08-03T04:01:08;11.35;;;5.18;;
45316;SDS011;31053;55.870;37.592;2022-08-03T04:04:12;10.93;;;6.15;;
45316;SDS011;31053;55.870;37.592;2022-08-03T04:07:46;12.63;;;6.88;;
45316;SDS011;31053;55.870;37.592;2022-08-03T04:11:29;14.60;;;6.55;;
45316;SDS011;31053;55.870;37.592;2022-08-03T04:14:37;17.17;;;6.10;;
45316;SDS011;31053;55.870;37.592;2022-08-03T04:17:42;9.88;;;5.20;;
45316;SDS011;31053;55.870;37.592;2022-08-03T04:20:46;11.02;;;6.38;;
45316;SDS011;31053;55.870;37.592;2022-08-03T04:23:52;12.95;;;6.05;;
45316;SDS011;31053;55.870;37.592;2022-08-03T04:27:01;11.43;;;5.45;;
45316;SDS011;31053;55.870;37.592;2022-08-03T04:30:07;17.50;;;6.80;;
45316;SDS011;31053;55.870;37.592;2022-08-03T04:33:12;21.88;;;7.03;;
45316;SDS011;31053;55.870;37.592;2022-08-03T04:36:19;9.50;;;6.03;;
45316;SDS011;31053;55.870;37.592;2022-08-03T04:39:26;11.50;;;6.20;;
45316;SDS011;31053;55.870;37.592;2022-08-03T04:42:32;10.18;;;6.50;;
45316;SDS011;31053;55.870;37.592;2022-08-03T04:45:37;9.18;;;6.25;;
45316;SDS011;31053;55.870;37.592;2022-08-03T04:48:42;16.58;;;7.65;;
45316;SDS011;31053;55.870;37.592;2022-08-03T04:51:48;12.95;;;7.55;;
45316;SDS011;31053;55.870;37.592;2022-08-03T04:54:52;13.02;;;6.22;;
45316;SDS011;31053;55.870;37.592;2022-08-03T04:57:57;12.27;;;6.18;;
45316;SDS011;31053;55.870;37.592;2022-08-03T05:01:03;15.40;;;9.18;;
45316;SDS011;31053;55.870;37.592;2022-08-03T05:04:07;15.05;;;8.38;;
45316;SDS011;31053;55.870;37.592;2022-08-03T05:07:12;11.93;;;6.68;;
45316;SDS011;31053;55.870;37.592;2022-08-03T05:10:17;13.10;;;5.22;;
45316;SDS011;31053;55.870;37.592;2022-08-03T05:13:22;13.75;;;5.70;;
45316;SDS011;31053;55.870;37.592;2022-08-03T05:16:27;25.00;;;6.78;;
45316;SDS011;31053;55.870;37.592;2022-08-03T05:19:31;13.57;;;5.75;;
45316;SDS011;31053;55.870;37.592;2022-08-03T05:22:36;17.30;;;5.43;;
45316;SDS011;31053;55.870;37.592;2022-08-03T05:25:40;12.82;;;7.55;;
45316;SDS011;31053;55.870;37.592;2022-08-03T05:28:45;23.55;;;8.75;;
45316;SDS011;31053;55.870;37.592;2022-08-03T05:31:54;12.77;;;5.07;;
45316;SDS011;31053;55.870;37.592;2022-08-03T05:34:59;13.73;;;4.82;;
45316;SDS011;31053;55.870;37.592;2022-08-03T05:38:04;8.35;;;5.32;;
45316;SDS011;31053;55.870;37.592;2022-08-03T05:41:09;13.85;;;5.97;;
45316;SDS011;31053;55.870;37.592;2022-08-03T05:44:14;9.38;;;4.43;;
45316;SDS011;31053;55.870;37.592;2022-08-03T05:47:18;15.77;;;6.05;;
45316;SDS011;31053;55.870;37.592;2022-08-03T05:50:23;14.48;;;5.72;;
45316;SDS011;31053;55.870;37.592;2022-08-03T05:53:27;11.18;;;5.22;;
45316;SDS011;31053;55.870;37.592;2022-08-03T05:56:31;8.20;;;4.50;;
45316;SDS011;31053;55.870;37.592;2022-08-03T05:59:37;14.57;;;5.32;;
45316;SDS011;31053;55.870;37.592;2022-08-03T06:02:42;14.50;;;6.10;;
45316;SDS011;31053;55.870;37.592;2022-08-03T06:05:46;12.35;;;4.55;;
45316;SDS011;31053;55.870;37.592;2022-08-03T06:08:50;14.73;;;5.28;;
45316;SDS011;31053;55.870;37.592;2022-08-03T06:11:56;12.93;;;4.93;;
45316;SDS011;31053;55.870;37.592;2022-08-03T06:15:01;15.95;;;5.32;;
45316;SDS011;31053;55.870;37.592;2022-08-03T06:18:08;13.15;;;5.40;;
45316;SDS011;31053;55.870;37.592;2022-08-03T06:21:13;14.18;;;4.30;;
45316;SDS011;31053;55.870;37.592;2022-08-03T06:24:18;12.30;;;4.00;;
45316;SDS011;31053;55.870;37.592;2022-08-03T06:27:23;12.50;;;2.97;;
45316;SDS011;31053;55.870;37.592;2022-08-03T06:30:28;9.85;;;2.97;;
45316;SDS011;31053;55.870;37.592;2022-08-03T06:33:32;6.53;;;2.90;;
45316;SDS011;31053;55.870;37.592;2022-08-03T06:36:37;15.35;;;3.53;;
45316;SDS011;31053;55.870;37.592;2022-08-03T06:39:41;9.13;;;3.13;;
45316;SDS011;31053;55.870;37.592;2022-08-03T06:42:45;10.13;;;3.17;;
45316;SDS011;31053;55.870;37.592;2022-08-03T06:45:49;5.75;;;2.58;;
45316;SDS011;31053;55.870;37.592;2022-08-03T06:48:54;5.63;;;3.38;;
45316;SDS011;31053;55.870;37.592;2022-08-03T06:51:59;13.40;;;6.57;;
45316;SDS011;31053;55.870;37.592;2022-08-03T06:55:04;9.02;;;3.55;;
45316;SDS011;31053;55.870;37.592;2022-08-03T06:58:10;12.88;;;3.33;;
45316;SDS011;31053;55.870;37.592;2022-08-03T07:01:14;18.85;;;7.47;;
45316;SDS011;31053;55.870;37.592;2022-08-03T07:04:19;11.15;;;3.22;;
45316;SDS011;31053;55.870;37.592;2022-08-03T07:07:23;7.97;;;2.30;;
45316;SDS011;31053;55.870;37.592;2022-08-03T07:10:28;7.90;;;3.42;;
45316;SDS011;31053;55.870;37.592;2022-08-03T07:13:32;4.05;;;2.08;;
45316;SDS011;31053;55.870;37.592;2022-08-03T07:16:36;8.60;;;2.50;;
45316;SDS011;31053;55.870;37.592;2022-08-03T07:19:40;2.60;;;1.88;;
45316;SDS011;31053;55.870;37.592;2022-08-03T07:22:45;10.65;;;2.70;;
45316;SDS011;31053;55.870;37.592;2022-08-03T07:25:50;7.15;;;2.45;;
45316;SDS011;31053;55.870;37.592;2022-08-03T07:28:55;6.82;;;1.63;;
45316;SDS011;31053;55.870;37.592;2022-08-03T07:32:00;2.15;;;1.35;;
45316;SDS011;31053;55.870;37.592;2022-08-03T07:35:04;4.60;;;2.28;;
45316;SDS011;31053;55.870;37.592;2022-08-03T07:38:09;1.58;;;1.27;;
45316;SDS011;31053;55.870;37.592;2022-08-03T07:41:16;6.18;;;1.98;;
45316;SDS011;31053;55.870;37.592;2022-08-03T07:44:21;4.60;;;1.90;;
45316;SDS011;31053;55.870;37.592;2022-08-03T07:47:26;1.70;;;1.48;;
45316;SDS011;31053;55.870;37.592;2022-08-03T07:50:31;7.00;;;1.77;;
45316;SDS011;31053;55.870;37.592;2022-08-03T07:53:36;4.38;;;2.35;;
45316;SDS011;31053;55.870;37.592;2022-08-03T07:56:40;6.03;;;1.70;;
45316;SDS011;31053;55.870;37.592;2022-08-03T07:59:45;2.67;;;1.00;;
45316;SDS011;31053;55.870;37.592;2022-08-03T08:02:50;3.07;;;1.53;;
45316;SDS011;31053;55.870;37.592;2022-08-03T08:05:55;3.58;;;1.45;;
45316;SDS011;31053;55.870;37.592;2022-08-03T08:09:00;3.08;;;1.10;;
45316;SDS011;31053;55.870;37.592;2022-08-03T08:12:05;1.63;;;1.30;;
45316;SDS011;31053;55.870;37.592;2022-08-03T08:15:11;2.40;;;1.73;;
45316;SDS011;31053;55.870;37.592;2022-08-03T08:18:15;4.53;;;1.38;;
45316;SDS011;31053;55.870;37.592;2022-08-03T08:21:20;1.70;;;1.10;;
45316;SDS011;31053;55.870;37.592;2022-08-03T08:24:25;4.47;;;1.27;;
45316;SDS011;31053;55.870;37.592;2022-08-03T08:27:31;3.95;;;1.58;;
45316;SDS011;31053;55.870;37.592;2022-08-03T08:30:36;3.22;;;1.20;;
45316;SDS011;31053;55.870;37.592;2022-08-03T08:33:40;2.95;;;1.90;;
45316;SDS011;31053;55.870;37.592;2022-08-03T08:36:44;3.80;;;2.03;;
45316;SDS011;31053;55.870;37.592;2022-08-03T08:39:49;8.80;;;2.08;;
45316;SDS011;31053;55.870;37.592;2022-08-03T08:42:54;2.15;;;1.40;;
45316;SDS011;31053;55.870;37.592;2022-08-03T08:45:58;3.35;;;1.38;;
45316;SDS011;31053;55.870;37.592;2022-08-03T08:49:03;1.77;;;1.13;;
45316;SDS011;31053;55.870;37.592;2022-08-03T08:52:09;3.20;;;1.65;;
45316;SDS011;31053;55.870;37.592;2022-08-03T08:55:17;4.53;;;2.92;;
45316;SDS011;31053;55.870;37.592;2022-08-03T08:58:23;3.63;;;1.98;;
45316;SDS011;31053;55.870;37.592;2022-08-03T09:01:34;4.50;;;1.73;;
45316;SDS011;31053;55.870;37.592;2022-08-03T09:04:41;2.47;;;1.90;;
45316;SDS011;31053;55.870;37.592;2022-08-03T09:07:46;4.40;;;1.30;;
45316;SDS011;31053;55.870;37.592;2022-08-03T09:10:51;3.03;;;1.00;;
45316;SDS011;31053;55.870;37.592;2022-08-03T09:13:57;6.85;;;1.83;;
45316;SDS011;31053;55.870;37.592;2022-08-03T09:17:02;2.20;;;1.45;;
45316;SDS011;31053;55.870;37.592;2022-08-03T09:20:07;5.28;;;2.20;;
45316;SDS011;31053;55.870;37.592;2022-08-03T09:23:12;4.82;;;1.73;;
45316;SDS011;31053;55.870;37.592;2022-08-03T09:26:23;8.95;;;2.20;;
45316;SDS011;31053;55.870;37.592;2022-08-03T09:29:32;7.35;;;2.03;;
45316;SDS011;31053;55.870;37.592;2022-08-03T09:32:37;2.35;;;1.45;;
45316;SDS011;31053;55.870;37.592;2022-08-03T09:38:59;5.28;;;2.60;;
45316;SDS011;31053;55.870;37.592;2022-08-03T09:42:23;3.13;;;1.60;;
45316;SDS011;31053;55.870;37.592;2022-08-03T09:45:33;9.02;;;1.52;;
45316;SDS011;31053;55.870;37.592;2022-08-03T09:48:40;1.70;;;1.20;;
45316;SDS011;31053;55.870;37.592;2022-08-03T09:51:44;2.50;;;1.67;;
45316;SDS011;31053;55.870;37.592;2022-08-03T09:54:50;3.07;;;1.90;;
45316;SDS011;31053;55.870;37.592;2022-08-03T09:58:03;5.63;;;1.92;;
45316;SDS011;31053;55.870;37.592;2022-08-03T10:01:09;7.18;;;1.83;;
45316;SDS011;31053;55.870;37.592;2022-08-03T10:04:14;3.88;;;1.92;;
45316;SDS011;31053;55.870;37.592;2022-08-03T10:07:24;3.10;;;1.75;;
45316;SDS011;31053;55.870;37.592;2022-08-03T10:10:29;3.65;;;2.08;;
45316;SDS011;31053;55.870;37.592;2022-08-03T10:13:46;4.45;;;2.30;;
45316;SDS011;31053;55.870;37.592;2022-08-03T10:16:50;9.40;;;2.50;;
45316;SDS011;31053;55.870;37.592;2022-08-03T10:19:57;5.80;;;1.98;;
45316;SDS011;31053;55.870;37.592;2022-08-03T10:23:03;4.50;;;1.77;;
45316;SDS011;31053;55.870;37.592;2022-08-03T10:26:08;2.20;;;1.40;;
45316;SDS011;31053;55.870;37.592;2022-08-03T10:29:23;4.45;;;3.55;;
45316;SDS011;31053;55.870;37.592;2022-08-03T10:32:33;2.50;;;1.90;;
45316;SDS011;31053;55.870;37.592;2022-08-03T10:35:47;2.33;;;2.00;;
45316;SDS011;31053;55.870;37.592;2022-08-03T10:38:55;4.47;;;1.75;;
45316;SDS011;31053;55.870;37.592;2022-08-03T10:42:01;2.17;;;1.67;;
45316;SDS011;31053;55.870;37.592;2022-08-03T10:45:08;4.30;;;1.58;;
45316;SDS011;31053;55.870;37.592;2022-08-03T10:48:18;3.95;;;2.50;;
45316;SDS011;31053;55.870;37.592;2022-08-03T10:51:22;1.90;;;1.70;;
45316;SDS011;31053;55.870;37.592;2022-08-03T10:54:46;4.35;;;3.20;;
45316;SDS011;31053;55.870;37.592;2022-08-03T10:58:08;5.20;;;2.42;;
45316;SDS011;31053;55.870;37.592;2022-08-03T11:01:14;5.63;;;2.55;;
45316;SDS011;31053;55.870;37.592;2022-08-03T11:04:19;2.80;;;1.92;;
45316;SDS011;31053;55.870;37.592;2022-08-03T11:07:24;6.68;;;2.65;;
45316;SDS011;31053;55.870;37.592;2022-08-03T11:10:30;4.57;;;2.75;;
45316;SDS011;31053;55.870;37.592;2022-08-03T11:13:37;6.82;;;2.78;;
45316;SDS011;31053;55.870;37.592;2022-08-03T11:17:07;10.37;;;2.70;;
45316;SDS011;31053;55.870;37.592;2022-08-03T11:20:14;9.80;;;2.33;;
45316;SDS011;31053;55.870;37.592;2022-08-03T11:24:04;3.85;;;2.53;;
45316;SDS011;31053;55.870;37.592;2022-08-03T11:27:38;8.70;;;2.13;;
45316;SDS011;31053;55.870;37.592;2022-08-03T11:33:28;3.65;;;1.48;;
45316;SDS011;31053;55.870;37.592;2022-08-03T11:46:51;3.05;;;1.92;;
45316;SDS011;31053;55.870;37.592;2022-08-03T11:49:57;3.05;;;1.95;;
45316;SDS011;31053;55.870;37.592;2022-08-03T11:53:11;1.70;;;1.40;;
45316;SDS011;31053;55.870;37.592;2022-08-03T11:56:42;9.32;;;2.13;;
45316;SDS011;31053;55.870;37.592;2022-08-03T11:59:50;6.20;;;2.08;;
45316;SDS011;31053;55.870;37.592;2022-08-03T12:03:00;3.42;;;1.75;;
45316;SDS011;31053;55.870;37.592;2022-08-03T12:06:11;4.43;;;1.80;;
45316;SDS011;31053;55.870;37.592;2022-08-03T12:09:19;3.53;;;1.92;;
45316;SDS011;31053;55.870;37.592;2022-08-03T12:12:27;3.40;;;1.50;;
45316;SDS011;31053;55.870;37.592;2022-08-03T12:15:35;4.00;;;1.60;;
45316;SDS011;31053;55.870;37.592;2022-08-03T12:18:44;2.90;;;2.17;;
45316;SDS011;31053;55.870;37.592;2022-08-03T12:21:49;7.53;;;1.90;;
45316;SDS011;31053;55.870;37.592;2022-08-03T12:24:54;10.73;;;2.93;;
45316;SDS011;31053;55.870;37.592;2022-08-03T12:31:30;5.03;;;1.92;;
45316;SDS011;31053;55.870;37.592;2022-08-03T12:34:43;5.50;;;3.08;;
45316;SDS011;31053;55.870;37.592;2022-08-03T12:37:51;12.27;;;3.85;;
45316;SDS011;31053;55.870;37.592;2022-08-03T12:41:01;3.90;;;2.50;;
45316;SDS011;31053;55.870;37.592;2022-08-03T12:44:10;5.15;;;2.35;;
45316;SDS011;31053;55.870;37.592;2022-08-03T12:47:15;5.28;;;2.05;;
45316;SDS011;31053;55.870;37.592;2022-08-03T12:50:25;4.95;;;2.47;;
45316;SDS011;31053;55.870;37.592;2022-08-03T12:53:30;4.72;;;2.45;;
45316;SDS011;31053;55.870;37.592;2022-08-03T12:56:44;6.45;;;2.10;;
45316;SDS011;31053;55.870;37.592;2022-08-03T13:00:09;8.13;;;2.33;;
45316;SDS011;31053;55.870;37.592;2022-08-03T13:03:17;5.35;;;2.20;;
45316;SDS011;31053;55.870;37.592;2022-08-03T13:06:23;6.10;;;2.72;;
45316;SDS011;31053;55.870;37.592;2022-08-03T13:12:57;5.07;;;1.65;;
45316;SDS011;31053;55.870;37.592;2022-08-03T13:16:03;3.78;;;1.83;;
45316;SDS011;31053;55.870;37.592;2022-08-03T13:19:08;4.10;;;1.67;;
45316;SDS011;31053;55.870;37.592;2022-08-03T13:22:14;5.32;;;2.05;;
45316;SDS011;31053;55.870;37.592;2022-08-03T13:25:23;2.90;;;1.52;;
45316;SDS011;31053;55.870;37.592;2022-08-03T13:28:28;3.00;;;2.15;;
45316;SDS011;31053;55.870;37.592;2022-08-03T13:31:33;3.45;;;2.15;;
45316;SDS011;31053;55.870;37.592;2022-08-03T13:34:38;5.15;;;1.77;;
45316;SDS011;31053;55.870;37.592;2022-08-03T13:37:43;2.03;;;1.33;;
45316;SDS011;31053;55.870;37.592;2022-08-03T13:40:47;6.05;;;2.17;;
45316;SDS011;31053;55.870;37.592;2022-08-03T13:43:52;1.67;;;1.27;;
45316;SDS011;31053;55.870;37.592;2022-08-03T13:46:59;4.30;;;2.42;;
45316;SDS011;31053;55.870;37.592;2022-08-03T13:50:04;4.68;;;1.88;;
45316;SDS011;31053;55.870;37.592;2022-08-03T13:53:09;5.05;;;2.08;;
45316;SDS011;31053;55.870;37.592;2022-08-03T13:56:14;3.95;;;1.73;;
45316;SDS011;31053;55.870;37.592;2022-08-03T13:59:19;3.08;;;1.77;;
45316;SDS011;31053;55.870;37.592;2022-08-03T14:02:27;3.95;;;2.15;;
45316;SDS011;31053;55.870;37.592;2022-08-03T14:05:32;8.07;;;1.48;;
45316;SDS011;31053;55.870;37.592;2022-08-03T14:08:36;11.35;;;2.25;;
45316;SDS011;31053;55.870;37.592;2022-08-03T14:11:41;3.40;;;2.00;;
45316;SDS011;31053;55.870;37.592;2022-08-03T14:14:46;2.33;;;1.70;;
45316;SDS011;31053;55.870;37.592;2022-08-03T14:17:50;7.38;;;1.92;;
45316;SDS011;31053;55.870;37.592;2022-08-03T14:20:59;4.10;;;2.15;;
45316;SDS011;31053;55.870;37.592;2022-08-03T14:24:08;4.47;;;2.00;;
45316;SDS011;31053;55.870;37.592;2022-08-03T14:27:12;3.63;;;1.85;;
45316;SDS011;31053;55.870;37.592;2022-08-03T14:30:17;4.13;;;2.50;;
45316;SDS011;31053;55.870;37.592;2022-08-03T14:33:22;6.55;;;2.80;;
45316;SDS011;31053;55.870;37.592;2022-08-03T14:36:27;8.85;;;2.33;;
45316;SDS011;31053;55.870;37.592;2022-08-03T14:39:31;9.95;;;2.63;;
45316;SDS011;31053;55.870;37.592;2022-08-03T14:42:36;6.10;;;2.30;;
45316;SDS011;31053;55.870;37.592;2022-08-03T14:45:40;16.95;;;11.05;;
45316;SDS011;31053;55.870;37.592;2022-08-03T14:48:45;11.63;;;5.05;;
45316;SDS011;31053;55.870;37.592;2022-08-03T14:51:50;8.35;;;2.45;;
45316;SDS011;31053;55.870;37.592;2022-08-03T14:54:54;7.05;;;2.55;;
45316;SDS011;31053;55.870;37.592;2022-08-03T14:57:59;8.32;;;2.50;;
45316;SDS011;31053;55.870;37.592;2022-08-03T15:01:08;6.95;;;2.53;;
45316;SDS011;31053;55.870;37.592;2022-08-03T15:04:12;2.83;;;2.30;;
45316;SDS011;31053;55.870;37.592;2022-08-03T15:07:17;4.95;;;2.30;;
45316;SDS011;31053;55.870;37.592;2022-08-03T15:10:22;5.85;;;2.13;;
45316;SDS011;31053;55.870;37.592;2022-08-03T15:13:26;8.23;;;2.40;;
45316;SDS011;31053;55.870;37.592;2022-08-03T15:16:31;7.07;;;2.65;;
45316;SDS011;31053;55.870;37.592;2022-08-03T15:19:36;6.10;;;2.30;;
45316;SDS011;31053;55.870;37.592;2022-08-03T15:22:40;5.25;;;2.65;;
45316;SDS011;31053;55.870;37.592;2022-08-03T15:25:46;6.18;;;3.72;;
45316;SDS011;31053;55.870;37.592;2022-08-03T15:28:51;6.20;;;2.60;;
45316;SDS011;31053;55.870;37.592;2022-08-03T15:31:55;6.05;;;2.75;;
45316;SDS011;31053;55.870;37.592;2022-08-03T15:35:00;11.73;;;4.82;;
45316;SDS011;31053;55.870;37.592;2022-08-03T15:38:04;4.03;;;2.63;;
45316;SDS011;31053;55.870;37.592;2022-08-03T15:41:09;7.10;;;2.17;;
45316;SDS011;31053;55.870;37.592;2022-08-03T15:44:18;6.10;;;3.10;;
45316;SDS011;31053;55.870;37.592;2022-08-03T15:47:23;4.30;;;2.40;;
45316;SDS011;31053;55.870;37.592;2022-08-03T15:50:28;5.63;;;2.92;;
45316;SDS011;31053;55.870;37.592;2022-08-03T15:53:32;15.32;;;3.75;;
45316;SDS011;31053;55.870;37.592;2022-08-03T15:56:37;17.77;;;3.97;;
45316;SDS011;31053;55.870;37.592;2022-08-03T15:59:43;20.00;;;7.10;;
45316;SDS011;31053;55.870;37.592;2022-08-03T16:02:49;11.52;;;4.00;;
45316;SDS011;31053;55.870;37.592;2022-08-03T16:05:54;8.15;;;2.90;;
45316;SDS011;31053;55.870;37.592;2022-08-03T16:09:05;13.10;;;3.58;;
45316;SDS011;31053;55.870;37.592;2022-08-03T16:12:10;11.07;;;3.72;;
45316;SDS011;31053;55.870;37.592;2022-08-03T16:15:15;14.45;;;5.55;;
45316;SDS011;31053;55.870;37.592;2022-08-03T16:18:20;8.80;;;3.47;;
45316;SDS011;31053;55.870;37.592;2022-08-03T16:21:25;15.23;;;3.60;;
45316;SDS011;31053;55.870;37.592;2022-08-03T16:24:29;8.18;;;3.83;;
45316;SDS011;31053;55.870;37.592;2022-08-03T16:27:34;8.07;;;3.60;;
45316;SDS011;31053;55.870;37.592;2022-08-03T16:30:40;11.38;;;5.38;;
45316;SDS011;31053;55.870;37.592;2022-08-03T16:33:46;15.75;;;4.80;;
45316;SDS011;31053;55.870;37.592;2022-08-03T16:36:51;11.82;;;3.60;;
45316;SDS011;31053;55.870;37.592;2022-08-03T16:39:57;12.32;;;5.88;;
45316;SDS011;31053;55.870;37.592;2022-08-03T16:43:09;10.90;;;3.75;;
45316;SDS011;31053;55.870;37.592;2022-08-03T16:46:15;9.57;;;5.68;;
45316;SDS011;31053;55.870;37.592;2022-08-03T16:49:20;18.80;;;6.65;;
45316;SDS011;31053;55.870;37.592;2022-08-03T16:52:26;14.18;;;5.97;;
45316;SDS011;31053;55.870;37.592;2022-08-03T16:55:31;11.25;;;5.35;;
45316;SDS011;31053;55.870;37.592;2022-08-03T16:58:41;17.50;;;5.93;;
45316;SDS011;31053;55.870;37.592;2022-08-03T17:01:46;20.00;;;6.30;;
45316;SDS011;31053;55.870;37.592;2022-08-03T17:04:51;11.90;;;6.70;;
45316;SDS011;31053;55.870;37.592;2022-08-03T17:07:56;16.88;;;5.97;;
45316;SDS011;31053;55.870;37.592;2022-08-03T17:11:01;12.45;;;6.25;;
45316;SDS011;31053;55.870;37.592;2022-08-03T17:14:06;11.88;;;6.53;;
45316;SDS011;31053;55.870;37.592;2022-08-03T17:17:16;15.63;;;9.48;;
45316;SDS011;31053;55.870;37.592;2022-08-03T17:20:25;13.88;;;6.78;;
45316;SDS011;31053;55.870;37.592;2022-08-03T17:26:49;30.35;;;7.25;;
45316;SDS011;31053;55.870;37.592;2022-08-03T17:29:58;12.75;;;5.60;;
45316;SDS011;31053;55.870;37.592;2022-08-03T17:33:04;11.68;;;5.22;;
45316;SDS011;31053;55.870;37.592;2022-08-03T17:36:11;13.45;;;7.55;;
45316;SDS011;31053;55.870;37.592;2022-08-03T17:39:16;17.88;;;7.22;;
45316;SDS011;31053;55.870;37.592;2022-08-03T17:42:22;20.52;;;8.70;;
45316;SDS011;31053;55.870;37.592;2022-08-03T17:45:27;13.80;;;7.18;;
45316;SDS011;31053;55.870;37.592;2022-08-03T17:48:33;14.82;;;5.95;;
45316;SDS011;31053;55.870;37.592;2022-08-03T17:51:40;12.63;;;6.07;;
45316;SDS011;31053;55.870;37.592;2022-08-03T18:05:22;17.40;;;5.30;;
45316;SDS011;31053;55.870;37.592;2022-08-03T18:08:29;17.60;;;5.75;;
45316;SDS011;31053;55.870;37.592;2022-08-03T18:11:35;14.60;;;5.85;;
45316;SDS011;31053;55.870;37.592;2022-08-03T18:14:47;20.00;;;8.48;;
45316;SDS011;31053;55.870;37.592;2022-08-03T18:18:03;18.15;;;7.88;;
45316;SDS011;31053;55.870;37.592;2022-08-03T18:21:09;16.00;;;8.43;;
45316;SDS011;31053;55.870;37.592;2022-08-03T18:24:14;10.48;;;7.07;;
45316;SDS011;31053;55.870;37.592;2022-08-03T18:27:25;13.95;;;5.97;;
45316;SDS011;31053;55.870;37.592;2022-08-03T18:30:31;16.25;;;6.78;;
45316;SDS011;31053;55.870;37.592;2022-08-03T18:33:36;10.45;;;5.78;;
45316;SDS011;31053;55.870;37.592;2022-08-03T18:36:45;10.13;;;5.40;;
45316;SDS011;31053;55.870;37.592;2022-08-03T18:39:55;14.15;;;5.25;;
45316;SDS011;31053;55.870;37.592;2022-08-03T18:43:03;12.13;;;4.45;;
45316;SDS011;31053;55.870;37.592;2022-08-03T18:46:07;9.23;;;4.30;;
45316;SDS011;31053;55.870;37.592;2022-08-03T18:52:48;19.02;;;7.82;;
45316;SDS011;31053;55.870;37.592;2022-08-03T18:59:51;10.73;;;5.38;;
45316;SDS011;31053;55.870;37.592;2022-08-03T19:03:12;7.72;;;5.50;;
45316;SDS011;31053;55.870;37.592;2022-08-03T19:06:18;10.32;;;4.90;;
45316;SDS011;31053;55.870;37.592;2022-08-03T19:09:46;8.07;;;5.18;;
45316;SDS011;31053;55.870;37.592;2022-08-03T19:13:07;12.18;;;4.07;;
45316;SDS011;31053;55.870;37.592;2022-08-03T19:16:13;7.60;;;3.50;;
45316;SDS011;31053;55.870;37.592;2022-08-03T19:22:27;16.52;;;6.53;;
45316;SDS011;31053;55.870;37.592;2022-08-03T19:28:41;9.65;;;4.43;;